Time;durP1;ratioP1;P1;durP2;ratioP2;P2;SDS_P1;SDS_P2;PMS_P1;PMS_P2;Temp;Humidity;BMP_temperature;BMP_pressure;BME280_temperature;BME280_humidity;BME280_pressure;Samples;Min_cycle;Max_cycle;Signal;HPM_P1;HPM_P2
2021/10/18 00:00:25;;;;;;;2.70;2.50;;;;;;;9.20;80.49;97080.28;5094429;28;20039;-64
2021/10/18 00:02:51;;;;;;;12.32;2.78;;;;;;;9.20;80.23;97076.78;5094539;28;20028;-61
2021/10/18 00:05:16;;;;;;;4.35;3.17;;;;;;;9.19;80.43;97078.56;5094313;28;20058;-64
2021/10/18 00:07:43;;;;;;;3.53;2.90;;;;;;;9.17;80.48;97075.13;5094464;28;20020;-61
2021/10/18 00:10:09;;;;;;;3.88;2.50;;;;;;;9.17;80.53;97079.47;5094410;28;20406;-63
2021/10/18 00:12:35;;;;;;;7.30;2.90;;;;;;;9.18;80.34;97076.81;5094297;28;20454;-61
2021/10/18 00:15:02;;;;;;;3.05;2.60;;;;;;;9.17;80.11;97072.50;5094241;28;20027;-63
2021/10/18 00:17:27;;;;;;;4.15;2.15;;;;;;;9.14;80.27;97071.72;5094079;28;20032;-64
2021/10/18 00:19:53;;;;;;;2.75;2.42;;;;;;;9.15;80.22;97076.06;5094027;28;20062;-61
2021/10/18 00:22:18;;;;;;;4.60;2.90;;;;;;;9.05;80.16;97078.88;5094023;28;20044;-63
2021/10/18 00:24:44;;;;;;;4.15;3.35;;;;;;;8.98;80.35;97070.31;5094041;28;20525;-62
2021/10/18 00:27:10;;;;;;;8.57;3.15;;;;;;;9.02;80.74;97070.25;5094039;28;20377;-61
2021/10/18 00:29:35;;;;;;;6.82;2.95;;;;;;;9.03;80.43;97070.22;5094054;28;20355;-62
2021/10/18 00:32:01;;;;;;;6.55;3.05;;;;;;;9.01;80.58;97074.63;5093839;28;20401;-62
2021/10/18 00:34:26;;;;;;;6.10;2.75;;;;;;;8.99;80.69;97065.97;5093899;28;20496;-63
2021/10/18 00:36:52;;;;;;;4.10;3.25;;;;;;;8.94;81.22;97067.84;5093797;28;20024;-61
2021/10/18 00:39:17;;;;;;;3.92;3.53;;;;;;;8.92;81.37;97062.66;5093895;28;20035;-62
2021/10/18 00:41:43;;;;;;;10.48;5.85;;;;;;;8.86;81.48;97065.41;5093699;28;20032;-61
2021/10/18 00:44:09;;;;;;;6.63;4.63;;;;;;;8.80;81.82;97065.53;5093746;28;20020;-62
2021/10/18 00:46:34;;;;;;;4.45;4.00;;;;;;;8.87;82.11;97069.72;5093671;28;20038;-63
2021/10/18 00:49:00;;;;;;;6.65;4.18;;;;;;;8.89;82.03;97069.69;5093683;28;20020;-63
2021/10/18 00:51:27;;;;;;;5.50;3.47;;;;;;;8.93;81.74;97068.72;5093580;28;20056;-63
2021/10/18 00:53:55;;;;;;;5.07;3.33;;;;;;;8.95;81.82;97070.41;5093493;28;20027;-61
2021/10/18 00:56:21;;;;;;;3.50;3.20;;;;;;;8.93;81.68;97068.72;5093456;28;20042;-64
2021/10/18 00:58:49;;;;;;;4.95;3.40;;;;;;;8.95;81.61;97073.03;5093400;28;20489;-61
2021/10/18 01:01:15;;;;;;;4.05;3.03;;;;;;;8.99;81.69;97073.78;5093373;28;20060;-64
2021/10/18 01:03:41;;;;;;;3.30;3.00;;;;;;;9.01;81.52;97077.25;5093328;28;20090;-61
2021/10/18 01:06:07;;;;;;;6.82;4.82;;;;;;;9.00;81.40;97064.22;5093473;28;20374;-64
2021/10/18 01:08:33;;;;;;;3.15;2.80;;;;;;;9.06;81.22;97074.53;5093388;28;20024;-64
2021/10/18 01:10:59;;;;;;;6.10;2.72;;;;;;;9.04;81.23;97079.78;5093268;28;20035;-62
2021/10/18 01:13:25;;;;;;;6.20;3.17;;;;;;;9.04;81.13;97077.16;5093366;28;20016;-63
2021/10/18 01:15:50;;;;;;;6.47;3.75;;;;;;;9.06;81.14;97079.75;5093285;28;20028;-63
2021/10/18 01:18:16;;;;;;;5.38;3.00;;;;;;;9.06;81.13;97075.38;5093218;28;20437;-63
2021/10/18 01:20:42;;;;;;;10.10;3.60;;;;;;;9.09;80.95;97079.66;5093129;28;20070;-62
2021/10/18 01:23:10;;;;;;;8.27;3.17;;;;;;;9.09;80.91;97075.28;5093282;28;20082;-62
2021/10/18 01:25:37;;;;;;;5.15;3.13;;;;;;;9.12;81.13;97076.13;5092840;28;20107;-61
2021/10/18 01:28:03;;;;;;;7.03;2.50;;;;;;;9.09;80.90;97063.97;5093138;28;20489;-60
2021/10/18 01:30:29;;;;;;;6.88;3.08;;;;;;;9.02;80.84;97073.72;5093042;28;20046;-64
2021/10/18 01:32:55;;;;;;;6.72;2.75;;;;;;;8.98;80.95;97077.31;5093023;28;20378;-63
2021/10/18 01:35:21;;;;;;;3.08;2.75;;;;;;;8.91;81.23;97076.56;5093025;28;20016;-61
2021/10/18 01:37:49;;;;;;;3.10;2.78;;;;;;;8.87;81.49;97072.31;5093027;28;20032;-61
2021/10/18 01:40:16;;;;;;;4.15;3.47;;;;;;;8.90;82.07;97076.59;5093004;28;20381;-63
2021/10/18 01:42:43;;;;;;;3.33;3.03;;;;;;;8.93;82.10;97069.56;5093054;28;20378;-62
2021/10/18 01:45:12;;;;;;;3.20;2.90;;;;;;;9.00;82.06;97074.66;5092943;28;20020;-61
2021/10/18 01:47:38;;;;;;;2.97;2.57;;;;;;;9.05;81.90;97078.00;5092972;28;20024;-64
2021/10/18 01:50:15;;;;;;;5.40;3.10;;;;;;;9.06;81.70;97077.13;5093000;28;20077;-61
2021/10/18 01:52:42;;;;;;;3.80;2.90;;;;;;;9.11;81.51;97083.09;5079345;28;20024;-63
2021/10/18 01:55:09;;;;;;;5.50;3.47;;;;;;;9.11;81.46;97067.44;5096868;28;20454;-64
2021/10/18 01:57:35;;;;;;;3.30;2.88;;;;;;;9.07;81.32;97073.63;5096814;28;20077;-61
2021/10/18 02:00:01;;;;;;;6.63;3.30;;;;;;;9.04;81.27;97077.16;5096697;28;20024;-63
2021/10/18 02:02:26;;;;;;;8.57;2.60;;;;;;;9.07;81.21;97076.22;5096853;28;20016;-63
2021/10/18 02:04:52;;;;;;;3.15;2.85;;;;;;;9.09;81.31;97072.69;5096480;28;20478;-61
2021/10/18 02:07:18;;;;;;;4.82;2.85;;;;;;;9.08;81.24;97076.19;5096658;28;20431;-63
2021/10/18 02:09:43;;;;;;;3.33;3.00;;;;;;;9.10;81.07;97077.00;5096777;28;20020;-64
2021/10/18 02:12:09;;;;;;;4.90;2.90;;;;;;;9.12;80.83;97071.75;5096651;28;20344;-63
2021/10/18 02:14:34;;;;;;;3.10;2.72;;;;;;;9.12;80.82;97081.34;5096528;28;20016;-64
2021/10/18 02:17:00;;;;;;;2.92;2.67;;;;;;;9.14;80.81;97079.53;5096486;28;20031;-64
2021/10/18 02:19:25;;;;;;;2.90;2.70;;;;;;;9.13;80.50;97076.09;5096377;28;20024;-63
2021/10/18 02:21:51;;;;;;;6.85;3.03;;;;;;;9.11;80.62;97077.88;5096448;28;20034;-62
2021/10/18 02:24:17;;;;;;;2.97;2.20;;;;;;;9.13;80.89;97075.22;5096380;28;20470;-61
2021/10/18 02:26:42;;;;;;;2.83;2.53;;;;;;;9.13;80.78;97075.22;5096350;28;20028;-63
2021/10/18 02:29:09;;;;;;;5.50;3.45;;;;;;;9.14;80.74;97071.72;5096232;28;20028;-63
2021/10/18 02:31:35;;;;;;;4.18;3.17;;;;;;;9.09;80.83;97077.91;5096156;28;20473;-60
2021/10/18 02:34:02;;;;;;;3.95;3.35;;;;;;;9.12;80.64;97079.56;5096190;28;20362;-63
2021/10/18 02:36:28;;;;;;;5.13;2.92;;;;;;;9.14;80.98;97079.53;5096142;28;20035;-62
2021/10/18 02:38:54;;;;;;;4.70;3.08;;;;;;;9.12;80.85;97078.75;5096193;28;20032;-62
2021/10/18 02:41:20;;;;;;;3.50;3.20;;;;;;;9.15;81.08;97078.66;5096032;28;20473;-63
2021/10/18 02:43:45;;;;;;;6.93;2.95;;;;;;;9.17;81.09;97077.72;5096011;28;20065;-64
2021/10/18 02:46:11;;;;;;;7.95;2.83;;;;;;;9.17;81.09;97075.13;5096028;28;20053;-64
2021/10/18 02:48:36;;;;;;;3.03;2.70;;;;;;;9.18;81.05;97073.38;5095846;28;20103;-64
2021/10/18 02:51:02;;;;;;;3.88;2.67;;;;;;;9.18;81.25;97079.44;5095988;28;20020;-63
2021/10/18 02:53:27;;;;;;;4.60;3.20;;;;;;;9.20;81.28;97085.50;5095714;28;20024;-63
2021/10/18 02:55:53;;;;;;;4.32;2.97;;;;;;;9.20;81.44;97082.88;5095776;28;20020;-60
2021/10/18 02:58:19;;;;;;;4.03;2.80;;;;;;;9.25;81.61;97084.50;5095811;28;20044;-62
2021/10/18 03:00:45;;;;;;;4.03;3.10;;;;;;;9.26;81.49;97084.47;5095681;28;20020;-63
2021/10/18 03:03:11;;;;;;;4.72;2.88;;;;;;;9.28;81.24;97080.09;5094287;28;20016;-61
2021/10/18 03:05:36;;;;;;;6.65;3.20;;;;;;;9.27;81.20;97083.56;5095643;28;20094;-63
2021/10/18 03:08:02;;;;;;;5.40;3.25;;;;;;;9.29;81.01;97083.53;5095500;28;20512;-63
2021/10/18 03:10:28;;;;;;;8.88;3.30;;;;;;;9.26;81.14;97079.25;5095349;28;20024;-61
2021/10/18 03:12:53;;;;;;;6.72;2.72;;;;;;;9.29;81.19;97080.94;5095457;28;20052;-63
2021/10/18 03:15:19;;;;;;;5.20;2.67;;;;;;;9.28;81.17;97080.09;5095429;28;20020;-60
2021/10/18 03:17:45;;;;;;;3.38;3.05;;;;;;;9.29;81.20;97083.53;5095272;28;20031;-64
2021/10/18 03:20:12;;;;;;;4.38;3.20;;;;;;;9.30;81.23;97082.66;5095149;28;20027;-61
2021/10/18 03:22:38;;;;;;;6.50;3.35;;;;;;;9.33;81.35;97085.22;5095212;28;20445;-64
2021/10/18 03:25:06;;;;;;;9.15;3.42;;;;;;;9.34;81.46;97081.69;5095186;28;20439;-63
2021/10/18 03:27:31;;;;;;;3.20;2.80;;;;;;;9.35;81.46;97086.88;5095141;28;20024;-64
2021/10/18 03:29:57;;;;;;;4.88;2.80;;;;;;;9.36;81.37;97085.09;5094961;28;20027;-63
2021/10/18 03:32:23;;;;;;;3.35;2.97;;;;;;;9.36;81.48;97085.09;5095221;28;20024;-63
2021/10/18 03:34:48;;;;;;;4.65;3.40;;;;;;;9.39;81.67;97086.81;5095075;28;20016;-62
2021/10/18 03:37:14;;;;;;;3.72;3.10;;;;;;;9.40;81.43;97075.44;5095056;28;20513;-65
2021/10/18 03:39:39;;;;;;;2.83;2.60;;;;;;;9.42;81.31;97084.13;5094959;28;20377;-63
2021/10/18 03:42:05;;;;;;;3.15;2.83;;;;;;;9.42;81.49;97078.91;5094701;28;20031;-63
2021/10/18 03:44:31;;;;;;;3.45;3.15;;;;;;;9.42;81.36;97081.50;5094686;28;20119;-61
2021/10/18 03:46:56;;;;;;;3.25;2.95;;;;;;;9.41;81.49;97088.47;5094950;28;20027;-63
2021/10/18 03:49:22;;;;;;;3.70;2.67;;;;;;;9.48;81.53;97091.78;5094929;28;20020;-64
2021/10/18 03:51:47;;;;;;;2.78;2.58;;;;;;;9.46;81.45;97088.38;5094675;28;20119;-64
2021/10/18 03:54:13;;;;;;;3.45;3.15;;;;;;;9.46;81.68;97085.75;5094595;28;20074;-62
2021/10/18 03:56:39;;;;;;;3.42;2.95;;;;;;;9.50;81.65;97083.91;5094628;28;20395;-64
2021/10/18 03:59:05;;;;;;;7.60;2.97;;;;;;;9.49;81.68;97085.69;5094606;28;20107;-61
2021/10/18 04:01:30;;;;;;;3.35;3.05;;;;;;;9.48;81.53;97086.56;5094354;28;20024;-61
2021/10/18 04:03:56;;;;;;;6.88;3.08;;;;;;;9.53;81.33;97081.22;5094339;28;20482;-61
2021/10/18 04:06:22;;;;;;;10.52;3.35;;;;;;;9.54;81.27;97085.56;5094345;28;20027;-61
2021/10/18 04:08:51;;;;;;;3.80;2.90;;;;;;;9.52;81.27;97088.22;5094304;28;20084;-64
2021/10/18 04:11:17;;;;;;;3.25;2.80;;;;;;;9.54;81.31;97091.63;5094388;28;20491;-62
2021/10/18 04:13:43;;;;;;;4.75;3.42;;;;;;;9.53;81.46;97086.44;5094009;28;20104;-63
2021/10/18 04:16:09;;;;;;;4.28;3.40;;;;;;;9.44;81.21;97087.53;5094120;28;20028;-63
2021/10/18 04:18:35;;;;;;;4.35;3.17;;;;;;;9.46;81.24;97085.75;5094269;28;20450;-61
2021/10/18 04:21:00;;;;;;;5.15;3.40;;;;;;;9.46;81.52;97086.59;5094067;28;20027;-63
2021/10/18 04:23:27;;;;;;;3.85;3.50;;;;;;;9.46;81.75;97083.97;5094241;28;20024;-63
2021/10/18 04:25:53;;;;;;;8.45;3.42;;;;;;;9.49;81.78;97088.28;5094011;28;20082;-62
2021/10/18 04:28:19;;;;;;;5.35;3.33;;;;;;;9.50;81.70;97084.78;5093908;28;20020;-63
2021/10/18 04:30:45;;;;;;;6.45;3.45;;;;;;;9.50;81.80;97086.50;5093914;28;20430;-64
2021/10/18 04:33:11;;;;;;;4.38;3.40;;;;;;;9.46;81.83;97089.19;5093911;28;20012;-62
2021/10/18 04:35:37;;;;;;;5.72;3.85;;;;;;;9.47;81.68;97087.47;5075635;28;20401;-64
2021/10/18 04:38:03;;;;;;;8.23;4.00;;;;;;;9.48;81.53;97082.19;5093960;28;20016;-61
2021/10/18 04:40:29;;;;;;;3.75;3.38;;;;;;;9.48;81.77;97079.59;5093738;28;20088;-64
2021/10/18 04:42:54;;;;;;;4.75;3.80;;;;;;;9.51;81.61;97085.63;5093771;28;20028;-64
2021/10/18 04:45:20;;;;;;;4.07;3.55;;;;;;;9.54;81.50;97096.00;5093706;28;20098;-63
2021/10/18 04:47:51;;;;;;;4.47;3.88;;;;;;;9.54;81.55;97094.25;5093680;28;20020;-62
2021/10/18 04:50:21;;;;;;;4.40;4.00;;;;;;;9.57;81.53;97091.56;5093637;28;20036;-63
2021/10/18 04:52:48;;;;;;;7.35;3.53;;;;;;;9.60;81.41;97093.22;5093583;28;20027;-62
2021/10/18 04:55:14;;;;;;;4.40;3.90;;;;;;;9.61;81.47;97097.56;5093495;28;20020;-61
2021/10/18 04:57:53;;;;;;;4.28;3.88;;;;;;;9.65;81.42;97091.38;5093451;28;20426;-63
2021/10/18 05:00:19;;;;;;;4.65;4.15;;;;;;;9.66;81.34;97102.69;5093377;28;20449;-63
2021/10/18 05:02:45;;;;;;;5.63;4.32;;;;;;;9.66;81.37;97108.75;5093415;28;20029;-62
2021/10/18 05:05:10;;;;;;;5.63;3.75;;;;;;;9.67;81.35;97107.88;5093284;28;20032;-61
2021/10/18 05:07:36;;;;;;;4.05;3.65;;;;;;;9.71;81.42;97113.84;5093417;28;20531;-63
2021/10/18 05:10:02;;;;;;;6.20;4.13;;;;;;;9.71;81.44;97119.94;5093315;28;20409;-62
2021/10/18 05:12:27;;;;;;;5.07;3.30;;;;;;;9.76;81.41;97114.63;5093355;28;20077;-63
2021/10/18 05:14:53;;;;;;;7.32;3.80;;;;;;;9.79;81.34;97116.28;5093305;28;20485;-63
2021/10/18 05:17:18;;;;;;;3.58;3.25;;;;;;;9.80;81.12;97129.31;5093302;28;20077;-64
2021/10/18 05:19:44;;;;;;;6.40;3.38;;;;;;;9.83;81.24;97133.59;5093379;28;20375;-63
2021/10/18 05:22:09;;;;;;;4.43;3.42;;;;;;;9.86;81.26;97131.78;5093132;28;20074;-63
2021/10/18 05:24:35;;;;;;;5.68;3.55;;;;;;;9.86;81.19;97139.63;5093153;28;20021;-62
2021/10/18 05:27:00;;;;;;;4.30;3.58;;;;;;;9.94;81.43;97142.00;5092517;28;20024;-61
2021/10/18 05:29:26;;;;;;;10.18;3.70;;;;;;;9.96;81.43;97141.97;5093016;28;20024;-62
2021/10/18 05:31:51;;;;;;;4.32;3.70;;;;;;;9.96;81.20;97148.06;5093063;28;20034;-61
2021/10/18 05:34:17;;;;;;;4.40;3.80;;;;;;;10.01;81.20;97152.31;5092986;28;20028;-62
2021/10/18 05:36:43;;;;;;;4.07;3.75;;;;;;;10.02;81.18;97146.19;5093117;28;20056;-64
2021/10/18 05:39:08;;;;;;;6.00;3.65;;;;;;;10.03;80.84;97148.78;5093075;28;20035;-63
2021/10/18 05:41:34;;;;;;;4.28;3.88;;;;;;;10.07;80.33;97153.00;5092953;28;20459;-62
2021/10/18 05:43:59;;;;;;;4.15;3.25;;;;;;;10.14;80.45;97148.47;5092884;28;20027;-64
2021/10/18 05:46:25;;;;;;;4.70;3.83;;;;;;;10.22;80.42;97154.38;5092957;28;20518;-61
2021/10/18 05:48:51;;;;;;;7.07;3.90;;;;;;;10.33;80.30;97164.53;5074945;28;20112;-61
2021/10/18 05:51:17;;;;;;;4.95;3.50;;;;;;;10.39;80.00;97168.75;5092891;28;20032;-64
2021/10/18 05:53:43;;;;;;;4.13;3.63;;;;;;;10.43;79.17;97166.88;5092882;28;20386;-62
2021/10/18 05:56:09;;;;;;;5.10;3.78;;;;;;;10.49;79.23;97165.00;5092948;28;20026;-64
2021/10/18 05:58:34;;;;;;;8.02;3.88;;;;;;;10.50;79.39;97165.84;5092774;28;20493;-63
2021/10/18 06:01:00;;;;;;;3.92;3.40;;;;;;;10.62;79.24;97172.50;5092802;28;20043;-63
2021/10/18 06:03:25;;;;;;;7.50;3.70;;;;;;;10.74;79.67;97182.63;5092544;28;20139;-63
2021/10/18 06:05:52;;;;;;;7.72;4.35;;;;;;;10.83;79.49;97181.50;5092783;28;20031;-62
2021/10/18 06:08:18;;;;;;;4.22;3.58;;;;;;;10.93;78.98;97176.00;5092768;28;20069;-64
2021/10/18 06:10:44;;;;;;;4.15;3.75;;;;;;;10.99;78.17;97184.53;5092777;28;20016;-62
2021/10/18 06:13:10;;;;;;;3.40;3.10;;;;;;;11.03;77.28;97179.19;5074725;28;20024;-62
2021/10/18 06:15:36;;;;;;;3.65;3.30;;;;;;;11.08;76.75;97182.56;5092688;28;20024;-61
2021/10/18 06:18:18;;;;;;;3.90;3.50;;;;;;;11.18;77.17;97190.97;5092615;28;20028;-64
2021/10/18 06:20:47;;;;;;;3.40;3.10;;;;;;;11.27;77.15;97192.47;5092536;28;20027;-64
2021/10/18 06:23:14;;;;;;;5.82;3.33;;;;;;;11.35;76.88;97190.47;5092701;28;20036;-63
2021/10/18 06:25:40;;;;;;;4.35;3.40;;;;;;;11.41;76.84;97190.25;5092644;28;20067;-61
2021/10/18 06:28:07;;;;;;;3.50;3.17;;;;;;;11.54;76.01;97196.00;5092608;28;20021;-64
2021/10/18 06:30:33;;;;;;;3.17;2.88;;;;;;;11.58;74.43;97195.00;5092520;28;20074;-64
2021/10/18 06:32:59;;;;;;;4.55;2.83;;;;;;;11.70;72.61;97198.13;5092671;28;20024;-63
2021/10/18 06:35:24;;;;;;;4.93;3.72;;;;;;;11.80;73.28;97196.91;5092550;28;20027;-64
2021/10/18 06:37:50;;;;;;;4.20;3.40;;;;;;;11.88;73.89;97201.91;5095020;28;20029;-64
2021/10/18 06:40:16;;;;;;;5.43;3.38;;;;;;;11.94;74.12;97208.72;5096207;28;20055;-62
2021/10/18 06:42:43;;;;;;;4.05;3.30;;;;;;;12.04;74.19;97206.66;5096054;28;20054;-64
2021/10/18 06:45:10;;;;;;;4.68;3.97;;;;;;;12.13;73.77;97209.84;5095968;28;20500;-62
2021/10/18 06:47:36;;;;;;;8.13;4.35;;;;;;;12.22;73.83;97206.06;5095954;28;20044;-62
2021/10/18 06:50:01;;;;;;;9.18;5.25;;;;;;;12.30;74.20;97208.44;5096059;28;20035;-63
2021/10/18 06:52:33;;;;;;;7.07;4.50;;;;;;;12.34;73.45;97203.94;5095860;28;20119;-61
2021/10/18 06:55:00;;;;;;;6.72;5.50;;;;;;;12.34;73.10;97211.81;5095780;28;20031;-62
2021/10/18 06:57:26;;;;;;;7.00;4.93;;;;;;;12.43;73.75;97210.63;5095696;28;20032;-63
2021/10/18 06:59:51;;;;;;;4.70;3.95;;;;;;;12.50;73.48;97212.97;5095735;28;20032;-64
2021/10/18 07:02:17;;;;;;;4.50;3.85;;;;;;;12.55;73.12;97207.56;5095794;28;20174;-64
2021/10/18 07:04:42;;;;;;;4.60;4.00;;;;;;;12.63;72.67;97213.41;5095375;28;20040;-63
2021/10/18 07:07:08;;;;;;;4.43;3.70;;;;;;;12.68;72.60;97213.25;5095541;28;20036;-64
2021/10/18 07:09:33;;;;;;;5.45;4.35;;;;;;;12.75;72.42;97213.88;5077376;28;20020;-62
2021/10/18 07:11:59;;;;;;;4.45;3.88;;;;;;;12.80;72.29;97217.19;5095553;28;20355;-61
2021/10/18 07:14:24;;;;;;;7.18;4.30;;;;;;;12.84;71.83;97215.31;5095523;28;20058;-62
2021/10/18 07:16:51;;;;;;;5.47;3.88;;;;;;;12.91;71.72;97226.47;5095293;28;20074;-61
2021/10/18 07:19:17;;;;;;;4.47;3.72;;;;;;;12.96;70.36;97222.75;5095236;28;20028;-61
2021/10/18 07:21:45;;;;;;;6.80;4.45;;;;;;;13.00;69.72;97211.19;5095207;28;20106;-63
2021/10/18 07:24:10;;;;;;;5.53;4.55;;;;;;;12.98;70.02;97220.06;5094671;28;20028;-64
2021/10/18 07:26:36;;;;;;;5.55;4.82;;;;;;;13.07;69.76;97221.47;5095208;28;20024;-61
2021/10/18 07:29:02;;;;;;;6.13;4.90;;;;;;;13.12;70.03;97216.91;5095170;28;20031;-60
2021/10/18 07:31:27;;;;;;;5.75;5.13;;;;;;;13.09;70.52;97214.38;5095004;28;20028;-61
2021/10/18 07:33:57;;;;;;;5.95;5.20;;;;;;;13.13;70.43;97210.75;5095037;28;20021;-62
2021/10/18 07:36:27;;;;;;;6.65;5.95;;;;;;;13.14;70.30;97217.72;5095149;28;20022;-61
2021/10/18 07:38:55;;;;;;;8.13;5.68;;;;;;;13.21;70.04;97207.81;5094921;28;20490;-61
2021/10/18 07:41:20;;;;;;;5.95;5.13;;;;;;;13.24;70.52;97219.06;5094758;28;20058;-64
2021/10/18 07:43:47;;;;;;;7.60;4.20;;;;;;;13.29;69.57;97224.16;5094991;28;20059;-64
2021/10/18 07:46:15;;;;;;;6.07;4.90;;;;;;;13.33;69.86;97217.03;5094805;28;20043;-65
2021/10/18 07:48:40;;;;;;;5.78;4.43;;;;;;;13.33;69.33;97225.75;5094078;28;20031;-60
2021/10/18 07:51:06;;;;;;;7.30;4.25;;;;;;;13.29;69.71;97223.28;5094726;28;20028;-62
2021/10/18 07:53:32;;;;;;;5.15;4.38;;;;;;;13.33;69.26;97230.16;5094599;28;20418;-62
2021/10/18 07:55:57;;;;;;;5.38;4.72;;;;;;;13.37;68.99;97223.88;5094550;28;20031;-64
2021/10/18 07:58:23;;;;;;;3.63;3.33;;;;;;;13.44;68.37;97232.34;5094553;28;20078;-64
2021/10/18 08:00:49;;;;;;;3.85;3.47;;;;;;;13.41;67.40;97230.72;5094442;28;20088;-63
2021/10/18 08:03:15;;;;;;;4.95;4.20;;;;;;;13.38;67.87;97225.56;5094198;28;20378;-64
2021/10/18 08:05:40;;;;;;;5.18;4.68;;;;;;;13.40;67.91;97235.09;5094531;28;20039;-63
2021/10/18 08:08:10;;;;;;;5.30;4.03;;;;;;;13.38;67.15;97236.09;5094348;28;20031;-60
2021/10/18 08:10:37;;;;;;;6.25;4.10;;;;;;;13.37;66.72;97240.47;5094356;28;20048;-63
2021/10/18 08:13:03;;;;;;;5.78;4.20;;;;;;;13.35;66.99;97230.94;5094263;28;20020;-63
2021/10/18 08:15:35;;;;;;;4.80;4.30;;;;;;;13.29;66.79;97231.16;5094297;28;20036;-63
2021/10/18 08:18:01;;;;;;;5.05;4.55;;;;;;;13.32;65.72;97233.69;5094209;28;20058;-62
2021/10/18 08:20:27;;;;;;;5.30;4.15;;;;;;;13.42;66.45;97232.41;5094060;28;20035;-61
2021/10/18 08:22:52;;;;;;;4.03;3.63;;;;;;;13.49;66.04;97238.31;5076140;28;20377;-61
2021/10/18 08:25:19;;;;;;;4.70;3.97;;;;;;;13.45;66.11;97239.34;5094087;28;20024;-62
2021/10/18 08:27:44;;;;;;;4.07;3.63;;;;;;;13.48;67.20;97237.44;5094070;28;20020;-64
2021/10/18 08:30:11;;;;;;;6.22;4.85;;;;;;;13.48;67.44;97234.81;5094096;28;20110;-61
2021/10/18 08:32:37;;;;;;;6.18;5.57;;;;;;;13.63;66.64;97227.25;5093935;28;20024;-62
2021/10/18 08:35:06;;;;;;;10.68;9.13;;;;;;;13.70;66.56;97231.38;5093896;28;20382;-63
2021/10/18 08:40:16;;;;;;;13.27;9.05;;;;;;;13.79;66.24;97231.94;5094419;28;20097;-61
2021/10/18 08:42:53;;;;;;;8.27;5.47;;;;;;;13.71;66.09;97227.84;5093712;28;20024;-62
2021/10/18 08:45:19;;;;;;;6.53;4.28;;;;;;;13.79;65.23;97226.66;5093726;28;20465;-61
2021/10/18 08:47:46;;;;;;;7.50;5.03;;;;;;;13.85;66.38;97218.53;5093691;28;20016;-61
2021/10/18 08:50:12;;;;;;;6.20;4.97;;;;;;;13.88;66.30;97226.31;5093825;28;20469;-63
2021/10/18 08:52:40;;;;;;;4.78;4.15;;;;;;;13.87;65.00;97230.69;5093647;28;20039;-63
2021/10/18 08:55:07;;;;;;;4.68;4.00;;;;;;;13.86;64.95;97221.09;5093522;28;20020;-61
2021/10/18 08:57:32;;;;;;;4.55;4.15;;;;;;;13.87;65.79;97217.56;5093522;28;20462;-62
2021/10/18 08:59:58;;;;;;;6.28;5.20;;;;;;;13.95;66.51;97224.28;5092850;28;20157;-62
2021/10/18 09:02:38;;;;;;;8.07;6.00;;;;;;;13.97;65.64;97218.03;5093390;28;20062;-61
2021/10/18 09:05:08;;;;;;;10.98;5.10;;;;;;;13.98;64.87;97221.50;5093202;28;20111;-62
2021/10/18 09:07:37;;;;;;;5.47;4.53;;;;;;;14.06;65.43;97221.22;5093423;28;20036;-61
2021/10/18 09:10:13;;;;;;;4.90;4.40;;;;;;;14.12;66.38;97219.16;5093349;28;20020;-63
2021/10/18 09:12:39;;;;;;;6.90;5.00;;;;;;;14.20;65.45;97224.13;5093288;28;20482;-63
2021/10/18 09:15:27;;;;;;;7.25;4.57;;;;;;;14.33;65.03;97221.81;5093234;28;20378;-61
2021/10/18 09:17:55;;;;;;;7.65;4.70;;;;;;;14.45;65.28;97223.06;5093210;28;20016;-62
2021/10/18 09:20:32;;;;;;;9.88;6.18;;;;;;;14.55;64.96;97220.91;5093014;28;20039;-61
2021/10/18 09:23:17;;;;;;;9.18;5.43;;;;;;;14.71;62.39;97226.34;5093472;28;20044;-63
2021/10/18 09:25:43;;;;;;;7.15;4.93;;;;;;;14.76;64.25;97224.38;5093199;28;20032;-62
2021/10/18 09:28:13;;;;;;;6.55;5.40;;;;;;;14.81;63.44;97216.28;5093388;28;20035;-63
2021/10/18 09:30:47;;;;;;;6.35;5.03;;;;;;;14.89;64.29;97218.59;5093174;28;20084;-61
2021/10/18 09:33:28;;;;;;;5.35;4.68;;;;;;;14.98;62.04;97206.78;5093175;28;20126;-62
2021/10/18 09:35:55;;;;;;;10.23;4.70;;;;;;;15.02;62.18;97211.84;5093097;28;20051;-63
2021/10/18 09:38:23;;;;;;;7.53;4.57;;;;;;;15.06;61.05;97209.06;5093123;28;20378;-63
2021/10/18 09:40:54;;;;;;;6.13;5.10;;;;;;;15.12;62.44;97212.28;5092815;28;20466;-60
2021/10/18 09:43:33;;;;;;;;;;;;;;;15.23;62.04;97197.75;5093343;28;20020;-62
2021/10/18 09:46:06;;;;;;;11.70;4.43;;;;;;;15.24;61.56;97200.34;5093032;28;19919;-62
2021/10/18 10:53:11;;;;;;;4.68;3.65;;;;;;;16.28;57.99;97149.63;5096271;28;20390;-62
2021/10/18 10:55:37;;;;;;;5.65;3.78;;;;;;;16.18;57.88;97153.66;5095851;28;20055;-63
2021/10/18 10:58:24;;;;;;;4.28;3.78;;;;;;;16.11;58.63;97154.91;5095709;28;20081;-63
2021/10/18 11:00:49;;;;;;;4.72;4.22;;;;;;;16.00;59.19;97145.75;5095530;28;20050;-61
2021/10/18 11:03:30;;;;;;;4.60;4.10;;;;;;;15.92;58.77;97145.25;5095482;28;20469;-63
2021/10/18 11:06:04;;;;;;;4.28;3.78;;;;;;;15.99;59.67;97135.28;5095602;28;20059;-62
2021/10/18 11:08:30;;;;;;;4.43;4.03;;;;;;;15.98;59.57;97141.50;5095648;28;20024;-63
2021/10/18 11:11:04;;;;;;;4.75;4.10;;;;;;;15.91;59.48;97138.25;5095592;28;20058;-62
2021/10/18 11:13:31;;;;;;;3.60;3.30;;;;;;;15.81;59.29;97139.66;5095727;28;20074;-62
2021/10/18 11:16:00;;;;;;;4.03;3.47;;;;;;;15.69;59.90;97134.06;5095326;28;20024;-63
2021/10/18 11:18:25;;;;;;;11.88;9.00;;;;;;;15.72;59.26;97140.97;5095435;28;20032;-62
2021/10/18 11:20:51;;;;;;;7.03;5.53;;;;;;;15.77;58.79;97128.38;5077377;28;20025;-63
2021/10/18 11:23:17;;;;;;;5.43;4.15;;;;;;;15.78;59.00;97130.13;5094375;28;20568;-63
2021/10/18 11:25:44;;;;;;;4.57;3.78;;;;;;;15.82;59.68;97128.16;5095261;28;20024;-61
2021/10/18 11:28:11;;;;;;;5.22;3.40;;;;;;;15.87;58.80;97134.91;5095260;28;20491;-62
2021/10/18 11:30:39;;;;;;;4.43;3.55;;;;;;;15.84;60.39;97126.31;5095183;28;20497;-61
2021/10/18 11:33:10;;;;;;;3.67;3.38;;;;;;;15.86;61.06;97127.94;5095177;28;20028;-61
2021/10/18 11:35:36;;;;;;;3.88;3.55;;;;;;;15.88;59.23;97125.22;5095099;28;20036;-62
2021/10/18 11:38:16;;;;;;;4.47;3.65;;;;;;;15.81;59.32;97123.84;5077011;28;20028;-63
2021/10/18 11:40:46;;;;;;;3.67;3.38;;;;;;;15.84;59.74;97116.63;5094997;28;20028;-61
2021/10/18 11:43:14;;;;;;;4.20;3.80;;;;;;;15.86;59.42;97117.38;5094895;28;20032;-63
2021/10/18 11:45:45;;;;;;;3.78;3.38;;;;;;;15.82;59.61;97117.63;5094973;28;20359;-60
2021/10/18 11:48:22;;;;;;;4.18;3.78;;;;;;;15.83;58.78;97117.53;5094972;28;20055;-63
2021/10/18 11:51:00;;;;;;;5.05;3.65;;;;;;;15.82;60.36;97118.47;5094967;28;20032;-63
2021/10/18 11:53:33;;;;;;;6.47;3.28;;;;;;;15.82;59.73;97115.84;5095089;28;20461;-61
2021/10/18 11:56:01;;;;;;;3.75;3.30;;;;;;;15.79;58.43;97113.34;5094807;28;20036;-62
2021/10/18 11:58:37;;;;;;;4.03;3.45;;;;;;;15.79;58.76;97106.31;5094678;28;20016;-62
2021/10/18 12:01:05;;;;;;;4.03;3.65;;;;;;;15.81;59.57;97111.50;5094544;28;20469;-63
2021/10/18 12:03:32;;;;;;;7.45;3.53;;;;;;;15.83;59.13;97108.78;5094226;28;20397;-61
2021/10/18 12:06:00;;;;;;;5.43;3.63;;;;;;;15.86;58.50;97106.84;5094513;28;20469;-61
2021/10/18 12:08:31;;;;;;;5.07;3.83;;;;;;;15.88;58.58;97110.25;5094491;28;20020;-62
2021/10/18 12:10:57;;;;;;;;;;;;;;;15.91;59.76;97115.38;5094845;28;20024;-61
2021/10/18 12:13:32;;;;;;;4.68;3.80;;;;;;;15.87;60.12;97110.34;5094479;28;19937;-62
2021/10/18 12:16:09;;;;;;;5.10;3.90;;;;;;;15.87;59.53;97116.44;5094399;28;20045;-61
2021/10/18 12:18:57;;;;;;;3.97;3.63;;;;;;;15.82;59.20;97110.56;5094217;28;20020;-62
2021/10/18 12:21:28;;;;;;;3.88;3.58;;;;;;;15.79;60.06;97113.34;5094133;28;20031;-63
2021/10/18 12:23:55;;;;;;;4.63;3.55;;;;;;;15.68;59.51;97110.41;5094126;28;20020;-60
2021/10/18 12:26:30;;;;;;;5.25;3.25;;;;;;;15.69;60.32;97104.19;5094171;28;20030;-63
2021/10/18 12:29:08;;;;;;;3.88;3.40;;;;;;;15.70;60.40;97101.47;5094128;28;20389;-63
2021/10/18 12:31:48;;;;;;;4.13;3.72;;;;;;;15.70;60.18;97103.25;5094029;28;20024;-63
2021/10/18 12:34:22;;;;;;;5.53;4.05;;;;;;;15.71;60.31;97105.81;5093763;28;20066;-62
2021/10/18 12:36:52;;;;;;;6.13;4.50;;;;;;;15.68;60.58;97103.34;5093982;28;20545;-61
2021/10/18 12:39:39;;;;;;;14.23;9.55;;;;;;;15.71;61.26;97097.06;5093939;28;20122;-64
2021/10/18 12:42:07;;;;;;;15.18;7.97;;;;;;;15.67;61.13;97099.00;5093700;28;20039;-61
2021/10/18 12:45:08;;;;;;;6.35;4.70;;;;;;;15.65;59.05;97098.22;5093707;28;20028;-62